Disclaimer

Please do not use the information listed here in-flight or in-navigation, as they are not provided to us by the airports but are provided by volunteers, so they might be outdated.

Search


Regions


Airport information page

No radio frequency information is available.

Airport informations:
Latitude: 20° 30' 24.58" N
Longitude: 013° 02' 35.50" W
Elevation: 758 feet - 231 meters
Operating hours: Remarks
Operating agency: Civil government, landing fees and diplomatic clearance may be required
Timezone: UTC 0
Fuel: Unknown fuel type or whether there is any fuel.

Runway information:
04/22 - 9855 x 98 feet< - >3004 x 30 meters

Recent METARs:
GQPA 131500Z 36010KT 8000 NSC 30/06 Q1013
GQPA 131500Z 36010KT 8000 NSC 30/06 Q1013
GQPA 131500Z 36010KT 8000 NSC 30/06 Q1013

Airport on the map: